createdAt,value
2019-05-05T15:18:01.614Z,14.70
2019-05-05T15:20:30.178Z,14.60
2019-05-05T15:23:00.541Z,14.50
2019-05-05T15:25:29.149Z,14.30
2019-05-05T15:27:57.615Z,14.10
2019-05-05T15:30:27.179Z,14.10
2019-05-05T15:32:55.794Z,14.20
2019-05-05T15:35:24.257Z,14.20
2019-05-05T15:37:54.186Z,14.20
2019-05-05T15:40:24.777Z,14.20
2019-05-05T15:42:54.474Z,14.20
2019-05-05T15:45:23.561Z,14.30
2019-05-05T15:47:53.920Z,14.20
2019-05-05T15:50:22.662Z,14.30
2019-05-05T15:52:51.214Z,14.20
2019-05-05T15:55:20.035Z,14.10
2019-05-05T15:57:48.901Z,14.20
2019-05-05T16:00:17.906Z,14.30
2019-05-05T16:02:46.357Z,14.20
2019-05-05T16:05:15.088Z,14.20
2019-05-05T16:07:44.055Z,14.10
2019-05-05T16:10:13.696Z,14.00
2019-05-05T16:12:44.790Z,13.60
2019-05-05T16:15:16.207Z,13.30
2019-05-05T16:17:49.600Z,13.20
2019-05-05T16:20:19.774Z,13.00
2019-05-05T16:23:06.250Z,12.90
2019-05-05T16:25:34.723Z,12.90
2019-05-05T16:28:05.410Z,13.10
2019-05-05T16:30:33.930Z,13.20
2019-05-05T16:33:04.235Z,13.20
2019-05-05T16:35:34.263Z,13.00
2019-05-05T16:38:03.859Z,12.80
2019-05-05T16:40:33.916Z,12.60
2019-05-05T16:43:02.368Z,12.50
2019-05-05T16:45:31.090Z,12.60
2019-05-05T16:47:59.543Z,12.70
2019-05-05T16:50:28.460Z,12.80
2019-05-05T16:53:03.799Z,12.70
2019-05-05T16:55:45.196Z,12.90
2019-05-05T16:58:14.015Z,12.80
2019-05-05T17:00:44.128Z,12.70
2019-05-05T17:03:13.541Z,12.50
2019-05-05T17:05:46.369Z,12.50
2019-05-05T17:08:13.959Z,12.40
2019-05-05T17:10:43.509Z,12.50
2019-05-05T17:13:15.373Z,12.50
2019-05-05T17:15:53.745Z,12.50
2019-05-05T17:18:33.627Z,12.40
2019-05-05T17:21:04.665Z,12.20
2019-05-05T17:23:34.138Z,12.00
2019-05-05T17:26:02.873Z,12.00
2019-05-05T17:28:33.372Z,11.90
2019-05-05T17:31:01.848Z,11.80
2019-05-05T17:33:33.778Z,11.80
2019-05-05T17:36:02.209Z,11.80
2019-05-05T17:38:31.201Z,11.70
2019-05-05T17:41:03.551Z,11.70
2019-05-05T17:43:34.074Z,11.60
2019-05-05T17:46:19.778Z,11.50
2019-05-05T17:48:56.216Z,11.50
2019-05-05T17:51:26.890Z,11.50
2019-05-05T17:54:03.222Z,11.40
2019-05-05T17:56:33.610Z,11.30
2019-05-05T17:59:03.483Z,11.30
2019-05-05T18:01:33.638Z,11.30
2019-05-05T18:04:04.141Z,11.40
2019-05-05T18:06:37.168Z,11.30
2019-05-05T18:09:20.195Z,11.30
2019-05-05T18:11:53.574Z,11.30
2019-05-05T18:14:24.547Z,11.30
2019-05-05T18:16:54.270Z,11.30
2019-05-05T18:19:24.753Z,11.30
2019-05-05T18:21:54.732Z,11.10
2019-05-05T18:24:24.255Z,11.10
2019-05-05T18:26:53.699Z,11.00
2019-05-05T18:29:24.153Z,11.00
2019-05-05T18:31:53.515Z,11.00
2019-05-05T18:34:30.392Z,11.00
2019-05-05T18:36:54.982Z,10.90
2019-05-05T18:39:24.675Z,10.80
2019-05-05T18:42:07.020Z,10.80
2019-05-05T18:44:37.183Z,10.70
2019-05-05T18:47:12.957Z,10.70
2019-05-05T18:49:42.302Z,10.70
2019-05-05T18:52:10.984Z,10.70
2019-05-05T18:54:39.452Z,10.60
2019-05-05T18:57:09.958Z,10.50
2019-05-05T18:59:38.505Z,10.50
2019-05-05T19:02:25.265Z,10.40
2019-05-05T19:05:13.348Z,10.30
2019-05-05T19:07:55.206Z,10.40
2019-05-05T19:10:17.247Z,10.40
2019-05-05T19:12:46.285Z,10.50
2019-05-05T19:15:15.057Z,10.40
2019-05-05T19:17:43.508Z,10.40
2019-05-05T19:20:14.658Z,10.30
2019-05-05T19:22:43.616Z,10.20
2019-05-05T19:25:14.978Z,10.00
2019-05-05T19:27:45.134Z,10.00
2019-05-05T19:30:15.634Z,10.00
2019-05-05T19:32:44.153Z,9.90
2019-05-05T19:35:13.273Z,9.90
2019-05-05T19:37:41.988Z,9.90
2019-05-05T19:40:10.697Z,9.80
2019-05-05T19:42:39.181Z,9.80
2019-05-05T19:45:09.354Z,9.70
2019-05-05T19:47:38.657Z,9.60
2019-05-05T19:50:20.945Z,9.50
2019-05-05T19:52:49.659Z,9.50
2019-05-05T19:55:18.206Z,9.40
2019-05-05T19:57:46.755Z,9.40
2019-05-05T20:00:15.925Z,9.30
2019-05-05T20:02:44.534Z,9.30
2019-05-05T20:05:15.199Z,9.30
2019-05-05T20:07:43.966Z,9.20
2019-05-05T20:10:14.631Z,9.20
2019-05-05T20:12:44.884Z,9.10
2019-05-05T20:15:18.217Z,9.20
2019-05-05T20:17:47.042Z,9.10
2019-05-05T20:20:16.004Z,9.20
2019-05-05T20:22:44.878Z,9.20
2019-05-05T20:25:14.004Z,9.20
2019-05-05T20:27:45.093Z,9.20
2019-05-05T20:30:14.351Z,9.30
2019-05-05T20:32:50.306Z,9.40
2019-05-05T20:35:33.831Z,9.50
2019-05-05T20:38:10.349Z,9.40
2019-05-05T20:40:40.861Z,9.30
2019-05-05T20:43:09.321Z,9.20
2019-05-05T20:45:38.785Z,9.00
2019-05-05T20:48:07.513Z,9.00
2019-05-05T20:50:35.978Z,9.10
2019-05-05T20:53:05.596Z,9.00
2019-05-05T20:55:34.156Z,8.90
2019-05-05T20:58:04.556Z,8.90
2019-05-05T21:00:34.775Z,8.90
2019-05-05T21:03:04.753Z,8.80
2019-05-05T21:05:34.355Z,8.70
2019-05-05T21:08:04.769Z,8.80
2019-05-05T21:10:34.737Z,8.70
2019-05-05T21:13:03.810Z,8.60
2019-05-05T21:15:34.090Z,8.60
2019-05-05T21:18:05.007Z,8.60
2019-05-05T21:20:34.642Z,8.60
2019-05-05T21:23:14.394Z,8.60
2019-05-05T21:25:44.994Z,8.50
2019-05-05T21:28:14.591Z,8.50
2019-05-05T21:30:43.381Z,8.50
2019-05-05T21:33:11.829Z,8.40
2019-05-05T21:35:40.575Z,8.40
2019-05-05T21:38:09.053Z,8.40
2019-05-05T21:40:37.497Z,8.40
2019-05-05T21:43:06.248Z,8.40
2019-05-05T21:45:34.958Z,8.40
2019-05-05T21:48:04.321Z,8.30
2019-05-05T21:50:40.268Z,8.30
2019-05-05T21:53:10.433Z,8.20
2019-05-05T21:55:40.673Z,8.20
2019-05-05T21:58:22.385Z,8.10
2019-05-05T22:00:51.141Z,8.10
2019-05-05T22:03:36.433Z,8.10
2019-05-05T22:06:05.653Z,8.00
2019-05-05T22:08:34.997Z,8.00
2019-05-05T22:11:04.097Z,7.90
2019-05-05T22:13:36.236Z,8.00
2019-05-05T22:16:04.035Z,7.90
2019-05-05T22:18:32.657Z,7.90
2019-05-05T22:21:14.001Z,7.80
2019-05-05T22:23:44.060Z,7.80
2019-05-05T22:26:12.254Z,7.80
2019-05-05T22:28:41.048Z,7.80
2019-05-05T22:31:09.597Z,7.80
2019-05-05T22:33:38.352Z,7.70
2019-05-05T22:36:07.232Z,7.70
2019-05-05T22:38:35.725Z,7.70
2019-05-05T22:41:04.345Z,7.70
2019-05-05T22:43:34.655Z,7.70
2019-05-05T22:46:03.570Z,7.60
2019-05-05T22:48:34.537Z,7.60
2019-05-05T22:51:03.843Z,7.60
2019-05-05T22:53:34.535Z,7.50
2019-05-05T22:56:04.037Z,7.50
2019-05-05T22:58:34.691Z,7.50
2019-05-05T23:01:03.988Z,7.50
2019-05-05T23:03:34.172Z,7.40
2019-05-05T23:06:04.421Z,7.40
2019-05-05T23:08:35.068Z,7.40
2019-05-05T23:11:04.033Z,7.30
2019-05-05T23:13:33.757Z,7.30
2019-05-05T23:16:04.398Z,7.30
2019-05-05T23:18:34.762Z,7.30
2019-05-05T23:21:21.192Z,7.30
2019-05-05T23:23:56.199Z,7.20
2019-05-05T23:26:35.897Z,7.20
2019-05-05T23:29:04.732Z,7.20
2019-05-05T23:31:33.651Z,7.20
2019-05-05T23:34:03.982Z,7.20
2019-05-05T23:36:34.004Z,7.20
2019-05-05T23:39:05.374Z,7.20
2019-05-05T23:41:34.885Z,7.10
2019-05-05T23:44:04.346Z,7.10
2019-05-05T23:46:34.811Z,7.10
2019-05-05T23:49:04.241Z,7.10
2019-05-05T23:51:34.778Z,7.10
2019-05-05T23:54:04.283Z,7.10
2019-05-05T23:56:35.048Z,7.10
2019-05-05T23:59:04.328Z,7.10
